Latest Weather Observations for Ballina

IDN60801

Issued at 11:42 am EDT Tuesday 19 February 2019 (issued every 10 minutes, with the page automatically refreshed every 10 minutes)

About weather observations | Map of weather stations | Latest weather observations for NSW | Other Formats
Station Details ID: 058198 Name: BALLINA AIRPORT AWS Lat: -28.84 Lon: 153.56 Height: 1.3 m
Data from the previous 72 hours. | See also: Recent months at Ballina
Date/Time
EDT
Temp
°C
App
Temp
°C
Dew
Point
°C
Rel
Hum
%
Delta-T
°C
Wind Press
QNH
hPa
Press
MSL
hPa
Rain since
9am
mm
Dir  Spd
km/h
Gust
km/h
Spd
kts
Gust
kts
19/11:30am 29.3 29.3 21.0 61 5.5 ENE 22 28 12 15 1008.6 1008.6 0.0
19/11:00am 28.6 29.4 20.6 62 5.3 ENE 17 24 9 13 1008.9 1008.9 0.0
19/10:30am 27.7 27.8 20.3 64 4.9 ENE 20 26 11 14 1009.0 1009.0 0.0
19/10:00am 27.5 28.2 19.6 62 5.1 ENE 15 20 8 11 1009.2 1009.2 0.0
19/09:30am 26.4 29.0 21.2 73 3.4 NE 9 17 5 9 1009.1 1009.1 0.0
19/09:00am 25.0 28.3 20.7 77 2.8 NNW 4 9 2 5 1009.1 1009.1 0.0
19/08:30am 22.4 26.2 20.1 87 1.5 CALM 0 0 0 0 1008.9 1008.9 0.0
19/08:00am 21.0 25.1 20.8 99 0.1 CALM 0 0 0 0 1008.8 1008.8 0.0
19/07:30am 18.9 22.0 18.7 99 0.1 CALM 0 0 0 0 1008.8 1008.8 0.0
19/07:00am 17.1 - - - - CALM 0 0 0 0 1008.9 1008.9 0.0
19/06:30am 16.5 - - - - CALM 0 6 0 3 1008.7 1008.7 0.0
19/06:00am 16.8 19.1 16.8 100 0.0 CALM 0 0 0 0 1008.6 1008.6 0.0
19/05:30am 16.9 19.3 16.9 100 0.0 CALM 0 0 0 0 1008.6 1008.6 0.0
19/05:00am 17.2 - - - - CALM 0 0 0 0 1008.6 1008.6 0.0
19/04:49am 17.4 - - - - CALM 0 0 0 0 1008.6 1008.6 0.0
19/04:30am 17.3 - - - - CALM 0 0 0 0 1008.8 1008.8 0.0
19/04:00am 17.7 20.3 17.5 99 0.1 CALM 0 0 0 0 1008.9 1008.9 0.0
19/03:55am 17.8 20.4 17.6 99 0.1 CALM 0 0 0 0 1009.0 1009.0 0.0
19/03:30am 18.0 20.7 17.8 99 0.1 CALM 0 0 0 0 1009.2 1009.2 0.0
19/03:00am 18.0 20.7 17.7 98 0.2 CALM 0 0 0 0 1009.5 1009.5 0.0
19/02:30am 18.5 21.3 17.9 96 0.4 CALM 0 0 0 0 1009.5 1009.5 0.0
19/02:00am 19.0 21.9 18.3 96 0.4 CALM 0 0 0 0 1009.8 1009.8 0.0
19/01:30am 19.6 22.8 18.9 96 0.4 CALM 0 0 0 0 1010.2 1010.2 0.0
19/01:00am 20.0 23.2 18.8 93 0.8 CALM 0 0 0 0 1010.5 1010.5 0.0
19/12:30am 20.7 23.9 18.8 89 1.2 CALM 0 0 0 0 1010.8 1010.8 0.0
19/12:00am 21.5 23.8 19.8 90 1.1 NNW 7 9 4 5 1010.9 1010.9 0.0
 
Date/Time
EDT
Temp
°C
App
Temp
°C
Dew
Point
°C
Rel
Hum
%
Delta-T
°C
Wind Press
QNH
hPa
Press
MSL
hPa
Rain since
9am
mm
Dir  Spd
km/h
Gust
km/h
Spd
kts
Gust
kts
18/11:30pm 21.9 23.7 19.6 87 1.5 NNW 9 9 5 5 1010.8 1010.8 0.0
18/11:00pm 23.2 24.7 19.8 81 2.2 NE 11 17 6 9 1010.9 1010.9 0.0
18/10:30pm 23.5 24.6 19.6 79 2.5 NE 13 17 7 9 1011.1 1011.1 0.0
18/10:00pm 23.1 24.1 19.5 80 2.3 NE 13 15 7 8 1011.1 1011.1 0.0
18/09:30pm 23.3 24.8 19.7 80 2.3 NE 11 15 6 8 1011.1 1011.1 0.0
18/09:00pm 22.9 24.4 19.7 82 2.1 NE 11 17 6 9 1010.8 1010.8 0.0
18/08:30pm 22.5 23.7 19.1 81 2.2 NE 11 13 6 7 1010.6 1010.6 0.0
18/08:00pm 22.8 24.1 19.4 81 2.2 NE 11 15 6 8 1010.2 1010.2 0.0
18/07:30pm 24.3 25.8 21.2 83 2.0 ENE 15 17 8 9 1009.9 1009.9 0.0
18/07:00pm 25.4 26.5 21.3 78 2.7 ENE 17 24 9 13 1009.6 1009.6 0.0
18/06:30pm 26.3 25.8 18.7 63 4.9 E 19 26 10 14 1009.6 1009.6 0.0
18/06:00pm 26.9 26.8 19.5 64 4.8 E 19 26 10 14 1009.4 1009.4 0.0
18/05:30pm 26.7 26.5 19.3 64 4.8 E 19 28 10 15 1009.5 1009.5 0.0
18/05:00pm 27.8 27.5 18.2 56 6.1 E 17 24 9 13 1009.5 1009.5 0.0
18/04:30pm 28.6 28.5 19.5 58 5.9 E 19 30 10 16 1009.6 1009.6 0.0
18/04:00pm 28.1 27.0 16.4 49 7.3 ESE 17 28 9 15 1009.9 1009.9 0.0
18/03:30pm 28.8 27.1 15.7 45 8.1 ESE 19 26 10 14 1010.0 1010.0 0.0
18/03:00pm 29.9 29.2 17.4 47 7.9 ESE 17 24 9 13 1010.3 1010.3 0.0
18/02:30pm 28.7 27.4 15.9 45 7.9 ESE 17 22 9 12 1010.8 1010.8 0.0
18/02:00pm 28.9 28.0 17.7 50 7.1 E 19 26 10 14 1011.2 1011.2 0.0
18/01:30pm 28.4 28.2 16.7 49 7.3 E 13 24 7 13 1011.4 1011.4 0.0
18/01:00pm 27.5 27.8 17.9 55 6.1 ESE 13 24 7 13 1011.8 1011.8 0.0
18/12:30pm 28.0 28.0 18.1 55 6.3 SE 15 22 8 12 1012.0 1012.0 0.0
18/12:00pm 27.5 28.4 18.5 58 5.8 ESE 11 17 6 9 1012.2 1012.2 0.0
18/11:30am 25.8 26.5 18.0 62 4.9 E 11 22 6 12 1012.7 1012.7 0.0
18/11:00am 25.1 25.2 20.4 75 3.1 ESE 20 28 11 15 1013.0 1013.0 0.0
18/10:30am 27.3 28.5 19.9 64 4.8 SE 13 19 7 10 1012.7 1012.7 0.0
18/10:00am 27.2 29.0 20.3 66 4.5 SE 11 17 6 9 1012.7 1012.7 0.0
18/09:30am 25.9 28.0 20.9 74 3.3 SSW 11 15 6 8 1012.9 1012.9 0.0
18/09:00am 25.0 27.2 20.3 75 3.1 WSW 9 15 5 8 1012.9 1012.9 0.0
18/08:30am 22.7 25.0 19.9 84 1.8 W 7 9 4 5 1012.8 1012.8 0.0
18/08:00am 20.4 24.3 20.4 100 0.0 CALM 0 0 0 0 1012.6 1012.6 0.0
18/07:30am 18.9 22.1 18.9 100 0.0 CALM 0 0 0 0 1012.4 1012.4 0.0
18/07:00am 17.7 19.2 17.5 99 0.1 WSW 6 6 3 3 1012.1 1012.1 0.0
18/06:30am 17.1 19.4 16.8 98 0.2 CALM 0 2 0 1 1012.1 1012.1 0.0
18/06:00am 17.3 19.6 16.8 97 0.3 CALM 0 0 0 0 1011.9 1011.9 0.0
18/05:30am 17.5 19.8 16.7 95 0.5 CALM 0 0 0 0 1011.6 1011.6 0.0
18/05:00am 18.1 20.4 16.8 92 0.8 CALM 0 0 0 0 1011.8 1011.8 0.0
18/04:30am 19.3 22.2 18.1 93 0.7 CALM 0 0 0 0 1011.9 1011.9 0.0
18/04:00am 19.4 21.6 18.4 94 0.6 WSW 4 7 2 4 1012.0 1012.0 0.0
18/03:30am 19.3 21.2 18.6 96 0.4 WNW 6 9 3 5 1012.1 1012.1 0.0
18/03:00am 18.9 20.6 18.4 97 0.3 WSW 7 9 4 5 1012.3 1012.3 0.0
18/02:30am 18.3 19.7 17.8 97 0.3 WSW 7 7 4 4 1012.5 1012.5 0.0
18/02:00am 18.5 19.9 17.7 95 0.5 WSW 7 7 4 4 1012.7 1012.7 0.0
18/01:30am 18.7 20.1 17.9 95 0.5 WSW 7 9 4 5 1013.1 1013.1 0.0
18/01:00am 18.9 20.1 17.4 91 0.9 W 7 9 4 5 1013.3 1013.3 0.0
18/12:30am 19.4 20.6 18.2 93 0.7 W 9 11 5 6 1013.6 1013.6 0.0
18/12:00am 19.6 21.0 17.9 90 1.0 W 7 9 4 5 1013.7 1013.7 0.0
 
Date/Time
EDT
Temp
°C
App
Temp
°C
Dew
Point
°C
Rel
Hum
%
Delta-T
°C
Wind Press
QNH
hPa
Press
MSL
hPa
Rain since
9am
mm
Dir  Spd
km/h
Gust
km/h
Spd
kts
Gust
kts
17/11:30pm 20.7 22.6 18.5 87 1.4 ENE 6 11 3 6 1013.7 1013.7 0.0
17/11:00pm 22.4 24.3 19.0 81 2.2 E 7 11 4 6 1013.8 1013.8 0.0
17/10:30pm 23.2 24.8 19.2 78 2.5 E 9 13 5 7 1013.9 1013.9 0.0
17/10:00pm 23.4 24.8 18.7 75 3.0 E 9 13 5 7 1013.8 1013.8 0.0
17/09:30pm 23.4 24.3 18.5 74 3.1 E 11 17 6 9 1013.6 1013.6 0.0
17/09:00pm 23.9 24.5 18.5 72 3.4 E 13 22 7 12 1013.3 1013.3 0.0
17/08:30pm 23.9 24.0 18.3 71 3.5 E 15 20 8 11 1013.1 1013.1 0.0
17/08:00pm 23.8 24.5 18.0 70 3.6 E 11 17 6 9 1012.9 1012.9 0.0
17/07:30pm 24.3 25.0 18.0 68 4.0 E 11 19 6 10 1012.7 1012.7 0.0
17/07:00pm 25.2 25.3 19.1 69 3.9 E 17 24 9 13 1012.5 1012.5 0.0
17/06:30pm 25.9 26.3 19.8 69 4.0 E 17 22 9 12 1012.2 1012.2 0.0
17/06:00pm 26.5 26.0 18.6 62 5.0 ESE 19 24 10 13 1012.2 1012.2 0.0
17/05:30pm 26.1 25.6 17.7 60 5.3 ESE 17 26 9 14 1012.1 1012.1 0.0
17/05:00pm 27.1 26.7 18.1 58 5.7 ESE 17 24 9 13 1012.1 1012.1 0.0
17/04:30pm 27.0 26.5 17.8 57 5.8 ESE 17 26 9 14 1012.3 1012.3 0.0
17/04:00pm 27.7 27.8 18.4 57 5.9 ESE 15 28 8 15 1012.4 1012.4 0.0
17/03:30pm 28.1 28.0 18.8 57 6.0 E 17 26 9 14 1012.7 1012.7 0.0
17/03:00pm 27.5 27.3 19.3 61 5.3 ESE 19 28 10 15 1013.1 1013.1 0.0
17/02:30pm 27.7 27.8 19.2 60 5.5 SE 17 24 9 13 1013.4 1013.4 0.0
17/02:00pm 28.1 29.0 20.9 65 4.8 SE 17 30 9 16 1013.8 1013.8 0.0
17/01:30pm 28.4 28.1 18.2 54 6.5 ESE 17 28 9 15 1014.1 1014.1 0.0
17/01:00pm 27.0 26.0 16.6 53 6.4 SE 17 30 9 16 1014.4 1014.4 0.0
17/12:30pm 27.7 26.4 16.9 51 6.7 ESE 19 26 10 14 1014.6 1014.6 0.0
17/12:00pm 27.1 25.8 15.8 50 6.9 SE 17 26 9 14 1015.1 1015.1 0.0
17/11:30am 27.6 26.2 16.6 51 6.8 ESE 19 32 10 17 1015.4 1015.4 0.0
17/11:00am 27.4 25.8 16.1 50 7.0 ESE 19 26 10 14 1015.6 1015.6 0.0
17/10:30am 27.9 26.7 17.1 51 6.8 SE 19 26 10 14 1015.5 1015.5 0.0
17/10:00am 26.8 26.2 18.4 60 5.3 S 19 26 10 14 1015.4 1015.4 0.0
17/09:30am 26.2 27.0 19.8 68 4.1 SSW 15 24 8 13 1015.3 1015.3 0.0
17/09:00am 24.8 26.2 20.3 76 2.9 SW 13 17 7 9 1015.2 1015.2 1.2
17/08:30am 22.8 23.6 19.0 79 2.4 WSW 13 15 7 8 1015.1 1015.1 1.2
17/08:00am 21.5 22.8 19.4 88 1.3 WSW 11 13 6 7 1015.0 1015.0 1.2
17/07:30am 20.3 22.4 19.3 94 0.6 W 7 9 4 5 1014.8 1014.8 1.2
17/07:00am 18.5 21.5 18.5 100 0.0 CALM 0 0 0 0 1014.5 1014.5 1.2
17/06:30am 17.9 - - - - W 6 7 3 4 1014.3 1014.3 1.2
17/06:00am 17.3 18.5 17.3 100 0.0 W 7 7 4 4 1014.0 1014.0 1.2
17/05:30am 17.4 18.6 17.4 100 0.0 W 7 9 4 5 1013.9 1013.9 1.2
17/05:00am 18.0 18.7 18.0 100 0.0 W 11 15 6 8 1014.0 1014.0 1.2
17/04:30am 18.1 18.8 17.9 99 0.1 W 11 13 6 7 1014.1 1014.1 1.2
17/04:00am 18.5 19.3 18.2 98 0.2 W 11 13 6 7 1014.1 1014.1 1.2
17/03:30am 19.2 20.6 18.7 97 0.3 W 9 11 5 6 1014.4 1014.4 1.2
17/03:00am 18.8 19.9 18.1 96 0.4 W 9 11 5 6 1014.6 1014.6 1.2
17/02:30am 19.6 21.3 18.4 93 0.7 SW 7 13 4 7 1015.0 1015.0 1.2
17/02:00am 20.8 22.4 18.2 85 1.6 SE 7 11 4 6 1015.3 1015.3 1.2
17/01:30am 21.4 22.5 18.0 81 2.1 SE 9 15 5 8 1015.9 1015.9 1.2
17/01:00am 22.0 21.2 15.1 65 4.1 SE 13 20 7 11 1016.2 1016.2 1.2
17/12:30am 22.6 22.0 15.7 65 4.1 SE 13 19 7 10 1016.6 1016.6 1.2
17/12:00am 22.9 21.9 15.7 64 4.3 SE 15 22 8 12 1016.9 1016.9 1.2
 
Date/Time
EDT
Temp
°C
App
Temp
°C
Dew
Point
°C
Rel
Hum
%
Delta-T
°C
Wind Press
QNH
hPa
Press
MSL
hPa
Rain since
9am
mm
Dir  Spd
km/h
Gust
km/h
Spd
kts
Gust
kts
16/11:30pm 23.2 22.5 16.3 65 4.2 SE 15 22 8 12 1017.1 1017.1 1.2
16/11:00pm 22.9 22.2 15.5 63 4.4 SE 13 20 7 11 1017.3 1017.3 1.2
16/10:30pm 23.3 22.5 16.1 64 4.4 SE 15 20 8 11 1017.2 1017.2 1.2
16/10:00pm 22.9 22.4 16.0 65 4.2 SE 13 20 7 11 1017.2 1017.2 1.2
16/09:30pm 23.6 22.3 15.9 62 4.7 SE 17 22 9 12 1017.2 1017.2 1.2
16/09:00pm 23.6 22.8 16.1 62 4.5 SE 15 24 8 13 1016.9 1016.9 1.2
16/08:30pm 23.4 22.6 16.0 63 4.5 SE 15 20 8 11 1016.8 1016.8 1.2
16/08:00pm 23.9 23.5 17.2 66 4.1 SE 15 22 8 12 1016.7 1016.7 1.2
16/07:30pm 24.3 23.0 16.8 63 4.6 SE 19 26 10 14 1016.5 1016.5 1.2
16/07:00pm 24.9 24.4 17.9 65 4.4 SSE 17 24 9 13 1016.2 1016.2 1.2
16/06:30pm 25.6 24.7 18.3 64 4.6 SSE 20 26 11 14 1016.1 1016.1 1.2
16/06:00pm 26.1 24.1 17.5 59 5.4 SSE 24 32 13 17 1016.3 1016.3 1.2
16/05:30pm 26.6 25.5 18.7 62 5.0 SSE 22 30 12 16 1016.2 1016.2 1.2
16/05:00pm 27.5 26.2 19.0 59 5.5 SSE 24 32 13 17 1016.2 1016.2 1.2
16/04:30pm 26.4 25.0 18.0 60 5.3 SSE 22 32 12 17 1016.3 1016.3 1.2
16/04:00pm 27.2 26.7 20.0 64 4.7 SSE 22 32 12 17 1016.4 1016.4 1.2
16/03:30pm 26.5 25.0 18.6 62 5.0 SSE 24 32 13 17 1016.6 1016.6 1.2
16/03:00pm 26.5 25.2 19.1 64 4.7 SSE 24 35 13 19 1017.0 1017.0 1.2
16/02:30pm 26.4 25.3 19.5 66 4.5 SSE 24 33 13 18 1017.4 1017.4 1.2
16/02:00pm 26.9 26.4 20.0 66 4.5 SE 22 35 12 19 1017.7 1017.7 1.2
16/01:30pm 26.9 24.9 18.2 59 5.5 SE 26 35 14 19 1018.0 1018.0 1.2
16/01:00pm 26.1 24.1 20.0 69 4.0 SE 30 41 16 22 1018.3 1018.3 1.2
16/12:30pm 24.9 25.2 20.8 78 2.7 SE 20 32 11 17 1018.6 1018.6 1.2
16/12:00pm 22.4 26.7 21.2 93 0.8 CALM 0 6 0 3 1019.0 1019.0 1.2

Other formats

Comma delimited format used in spreadsheet applications
http://www.bom.gov.au/fwo/IDN60801/IDN60801.94596.axf

JavaScript Object Notation format (JSON) in row-major order
http://www.bom.gov.au/fwo/IDN60801/IDN60801.94596.json

Data quality

Most of these data are generated automatically and are frequently updated. Quality checks on data are not normally performed. It is possible for incorrect values to appear. Refer to information at About Latest Weather Observations and please check the disclaimer before using these data.